Latest Coastal Weather Observations for Dunalley

IDT60701

Issued at 7:21 pm EST Friday 31 July 2015 (issued every 10 minutes, with the page automatically refreshed every 10 minutes)

About coastal observations | Map of coastal stations | Coastal observations for TAS | Marine services | Other Formats
Station Details ID: 094254 Name: DUNALLEY (STROUD POINT) Lat: -42.90 Lon: 147.79 Height: 12.43 m
Data from the previous 72 hours. | See also: Recent months at Dunalley
Date/Time
EST
Temp

°C
Wind Pressure Rain
since 9am
mm
Weather Cloud Vis
km
Sea
Height
m
Swell
Dir
 
Speed
knots
Gust
knots
hPa Trend Height
m
Period
s
Dir
31/07:00pm 7.8 N 7 10 1008.8 - 0.0 - - - - - - -
31/06:30pm 7.7 N 6 9 1009.2 - 0.0 - - - - - - -
31/06:00pm 8.4 N 8 11 1008.9 - 0.0 - - - - - - -
31/05:30pm 8.4 NNW 7 10 1009.0 - 0.0 - - - - - - -
31/05:00pm 8.8 NNW 7 9 1009.2 - 0.0 - - - - - - -
31/04:30pm 10.7 NNW 4 8 1009.4 - 0.0 - - - - - - -
31/04:00pm 10.5 NNW 5 11 1009.7 - 0.0 - - - - - - -
31/03:30pm 11.1 N 5 9 1010.4 - 0.0 - - - - - - -
31/03:00pm 11.4 NW 6 10 1010.6 - 0.0 - - - - - - -
31/02:30pm 10.9 NW 8 14 1010.8 - 0.0 - - - - - - -
31/02:00pm 11.3 NW 10 15 1011.2 - 0.0 - - - - - - -
31/01:30pm 10.8 WNW 11 16 1011.8 - 0.0 - - - - - - -
31/01:00pm 10.8 NW 6 14 1012.2 - 0.0 - - - - - - -
31/12:30pm 10.5 NNW 7 14 1012.8 - 0.0 - - - - - - -
31/12:00pm 9.8 NNW 8 13 1013.3 - 0.0 - - - - - - -
31/11:30am 10.0 WNW 11 17 1013.6 - 0.0 - - - - - - -
31/11:00am 9.7 NNW 10 15 1013.4 - 0.0 - - - - - - -
31/10:30am 9.0 NW 12 17 1013.9 - 0.0 - - - - - - -
31/10:00am 9.0 NW 7 9 1013.8 - 0.0 - - - - - - -
31/09:30am 8.2 NW 11 16 1013.5 - 0.0 - - - - - - -
31/09:00am 7.6 NW 9 13 1013.6 - 0.0 - - - - - - -
31/08:30am 6.9 NW 9 14 1013.3 - 0.0 - - - - - - -
31/08:00am 6.4 WNW 8 13 1013.0 - 0.0 - - - - - - -
31/07:30am 6.3 WNW 12 17 1012.5 - 0.0 - - - - - - -
31/07:00am 5.6 WNW 10 14 1012.3 - 0.0 - - - - - - -
31/06:30am 5.2 W 10 12 1012.0 - 0.0 - - - - - - -
31/06:00am 5.5 WNW 9 11 1011.5 - 0.0 - - - - - - -
31/05:30am 5.3 W 6 8 1011.6 - 0.0 - - - - - - -
31/05:00am 5.3 W 4 7 1011.1 - 0.0 - - - - - - -
31/04:30am 5.9 W 6 15 1011.1 - 0.0 - - - - - - -
31/04:26am 6.3 W 10 17 1011.0 - 0.0 - - - - - - -
31/04:00am 7.0 WSW 21 26 1010.4 - 0.0 - - - - - - -
31/03:30am 6.9 W 17 27 1009.8 - 0.0 - - - - - - -
31/03:26am 6.7 W 12 24 1009.7 - 0.0 - - - - - - -
31/03:00am 6.0 W 9 17 1009.7 - 0.0 - - - - - - -
31/02:30am 6.9 WSW 18 22 1008.9 - 0.0 - - - - - - -
31/02:00am 7.0 WSW 19 21 1008.9 - 0.0 - - - - - - -
31/01:30am 7.4 WSW 24 32 1008.0 - 0.0 - - - - - - -
31/01:00am 7.3 W 24 29 1007.4 - 0.0 - - - - - - -
31/12:36am 7.4 WSW 18 29 1006.8 - 0.0 - - - - - - -
31/12:30am 7.3 SW 16 19 1006.8 - 0.0 - - - - - - -
31/12:00am 7.4 W 18 22 1006.6 - 0.0 - - - - - - -
 
Date/Time
EST
Temp

°C
Wind Pressure Rain
since 9am
mm
Weather Cloud Vis
km
Sea
Height
m
Swell
Dir
 
Speed
knots
Gust
knots
hPa Trend Height
m
Period
s
Dir
30/11:30pm 7.3 W 20 24 1005.6 - 0.0 - - - - - - -
30/11:00pm 7.9 WSW 19 23 1005.7 - 0.0 - - - - - - -
30/10:30pm 8.0 WSW 18 22 1004.9 - 0.0 - - - - - - -
30/10:00pm 8.1 WSW 24 30 1003.9 - 0.0 - - - - - - -
30/09:30pm 9.2 WSW 27 33 1002.8 - 0.0 - - - - - - -
30/09:16pm 9.6 WSW 27 34 1002.5 - 0.0 - - - - - - -
30/09:03pm 10.2 W 19 29 1002.1 - 0.0 - - - - - - -
30/09:00pm 10.3 W 19 25 1002.0 - 0.0 - - - - - - -
30/08:41pm 10.6 W 19 30 1001.3 - 0.0 - - - - - - -
30/08:30pm 10.5 W 18 25 1000.9 - 0.0 - - - - - - -
30/08:08pm 11.0 WNW 19 30 1000.4 - 0.0 - - - - - - -
30/08:00pm 11.4 WNW 21 30 1000.3 - 0.0 - - - - - - -
30/07:31pm 11.8 NW 15 30 999.2 - 0.0 - - - - - - -
30/07:30pm 11.6 NW 14 23 999.2 - 0.0 - - - - - - -
30/07:29pm 11.4 NW 13 23 999.3 - 0.0 - - - - - - -
30/07:00pm 10.7 NNW 9 13 998.9 - 0.0 - - - - - - -
30/06:30pm 10.7 N 9 14 998.7 - 0.0 - - - - - - -
30/06:00pm 10.4 N 6 11 998.8 - 0.0 - - - - - - -
30/05:30pm 10.4 NE 11 16 998.9 - 0.0 - - - - - - -
30/05:00pm 11.5 NNE 9 16 999.4 - 0.0 - - - - - - -
30/04:30pm 11.7 N 7 15 999.8 - 0.0 - - - - - - -
30/04:00pm 12.6 N 8 16 1000.6 - 0.0 - - - - - - -
30/03:30pm 13.0 N 9 16 1001.2 - 0.0 - - - - - - -
30/03:00pm 13.0 NNE 15 22 1001.6 - 0.0 - - - - - - -
30/02:30pm 13.0 N 17 25 1002.2 - 0.0 - - - - - - -
30/02:00pm 13.8 N 18 26 1002.4 - 0.0 - - - - - - -
30/01:41pm 14.2 N 15 26 1003.0 - 0.0 - - - - - - -
30/01:30pm 14.2 N 11 20 1003.2 - 0.0 - - - - - - -
30/01:00pm 13.0 N 12 21 1004.3 - 0.0 - - - - - - -
30/12:30pm 12.7 NNW 15 24 1005.1 - 0.0 - - - - - - -
30/12:00pm 12.2 NNW 14 24 1006.0 - 0.0 - - - - - - -
30/11:30am 12.0 N 8 17 1007.4 - 0.0 - - - - - - -
30/11:00am 11.6 NNW 10 15 1008.7 - 0.0 - - - - - - -
30/10:30am 11.4 NNW 5 10 1009.6 - 0.0 - - - - - - -
30/10:00am 11.0 NNW 7 10 1010.2 - 0.0 - - - - - - -
30/09:30am 10.8 N 9 16 1010.9 - 0.0 - - - - - - -
30/09:00am 10.7 N 4 10 1011.7 - 0.0 - - - - - - -
30/08:30am 10.2 N 3 6 1012.2 - 0.0 - - - - - - -
30/08:00am 10.2 N 4 7 1012.8 - 0.0 - - - - - - -
30/07:30am 8.8 N 3 6 1013.2 - 0.0 - - - - - - -
30/07:00am 9.3 N 4 6 1013.6 - 0.0 - - - - - - -
30/06:30am 9.0 N 3 6 1014.0 - 0.0 - - - - - - -
30/06:00am 9.7 N 4 7 1014.4 - 0.0 - - - - - - -
30/05:30am 10.2 NNW 6 12 1014.9 - 0.0 - - - - - - -
30/05:00am 9.4 N 4 6 1015.1 - 0.0 - - - - - - -
30/04:30am 10.2 NNW 4 9 1015.5 - 0.0 - - - - - - -
30/04:00am 10.3 NNW 6 9 1015.7 - 0.0 - - - - - - -
30/03:30am 10.7 NW 9 15 1015.9 - 0.0 - - - - - - -
30/03:00am 10.7 NNW 11 15 1016.1 - 0.0 - - - - - - -
30/02:30am 10.9 NW 9 13 1017.2 - 0.0 - - - - - - -
30/02:00am 10.6 N 7 12 1017.7 - 0.0 - - - - - - -
30/01:30am 10.4 N 5 7 1018.2 - 0.0 - - - - - - -
30/01:00am 9.7 N 4 6 1018.6 - 0.0 - - - - - - -
30/12:30am 9.2 N 4 6 1018.8 - 0.0 - - - - - - -
30/12:00am 9.3 N 5 7 1019.2 - 0.0 - - - - - - -
 
Date/Time
EST
Temp

°C
Wind Pressure Rain
since 9am
mm
Weather Cloud Vis
km
Sea
Height
m
Swell
Dir
 
Speed
knots
Gust
knots
hPa Trend Height
m
Period
s
Dir
29/11:30pm 9.9 N 4 7 1019.6 - 0.0 - - - - - - -
29/11:00pm 11.1 N 5 10 1019.8 - 0.0 - - - - - - -
29/10:30pm 10.9 N 7 13 1020.3 - 0.0 - - - - - - -
29/10:00pm 10.0 ENE 4 8 1020.6 - 0.0 - - - - - - -
29/09:30pm 9.8 NW 8 12 1021.0 - 0.0 - - - - - - -
29/09:00pm 10.9 NW 6 10 1021.4 - 0.0 - - - - - - -
29/08:30pm 10.1 NW 3 7 1021.3 - 0.0 - - - - - - -
29/08:00pm 10.0 NW 4 8 1021.4 - 0.0 - - - - - - -
29/07:30pm 9.4 NW 5 9 1021.6 - 0.0 - - - - - - -
29/07:00pm 9.3 NW 4 6 1021.8 - 0.0 - - - - - - -
29/06:30pm 9.0 NW 5 7 1021.8 - 0.0 - - - - - - -
29/06:00pm 9.1 NW 5 6 1021.8 - 0.0 - - - - - - -
29/05:30pm 9.6 NW 4 6 1022.0 - 0.0 - - - - - - -
29/05:00pm 10.2 WNW 3 5 1022.1 - 0.0 - - - - - - -
29/04:30pm 11.4 WNW 2 4 1022.2 - 0.0 - - - - - - -
29/04:00pm 12.1 WNW 4 6 1022.5 - 0.0 - - - - - - -
29/03:30pm 12.7 NW 6 9 1022.7 - 0.0 - - - - - - -
29/03:00pm 12.7 NW 4 5 1022.9 - 0.0 - - - - - - -
29/02:30pm 12.8 NW 7 12 1023.2 - 0.0 - - - - - - -
29/02:00pm 13.1 WNW 6 11 1023.6 - 0.0 - - - - - - -
29/01:30pm 12.9 WNW 8 12 1024.1 - 0.0 - - - - - - -
29/01:00pm 12.9 WNW 7 10 1024.4 - 0.0 - - - - - - -
29/12:30pm 12.3 WNW 9 12 1024.9 - 0.0 - - - - - - -
29/12:00pm 12.7 WNW 7 11 1025.5 - 0.0 - - - - - - -
29/11:30am 12.2 WNW 9 12 1026.0 - 0.0 - - - - - - -
29/11:00am 12.3 NW 8 11 1026.4 - 0.0 - - - - - - -
29/10:30am 11.6 NW 4 6 1026.7 - 0.0 - - - - - - -
29/10:00am 10.8 NW 9 12 1027.1 - 0.0 - - - - - - -
29/09:30am 10.3 NNW 9 12 1027.3 - 0.0 - - - - - - -
29/09:00am 10.5 N 5 9 1027.4 - 0.0 - - - - - - -
29/08:30am 7.7 ENE 4 6 1027.5 - 0.0 - - - - - - -
29/08:00am 7.9 NNW 8 10 1027.3 - 0.0 - - - - - - -
29/07:30am 7.1 NNW 4 6 1027.2 - 0.0 - - - - - - -
29/07:00am 8.2 NNW 5 8 1027.3 - 0.0 - - - - - - -
29/06:30am 9.8 NNW 7 11 1027.1 - 0.0 - - - - - - -
29/06:00am 8.9 NNW 5 10 1027.1 - 0.0 - - - - - - -
29/05:30am 9.6 NNW 6 8 1026.6 - 0.0 - - - - - - -
29/05:00am 9.7 NNW 7 10 1026.6 - 0.0 - - - - - - -
29/04:30am 9.7 NNW 7 11 1026.4 - 0.0 - - - - - - -
29/04:00am 7.0 NNW 4 5 1026.7 - 0.0 - - - - - - -
29/03:30am 7.7 NNW 3 4 1026.6 - 0.0 - - - - - - -
29/03:00am 7.9 NNW 3 4 1026.7 - 0.0 - - - - - - -
29/02:30am 9.1 NNW 4 5 1027.0 - 0.0 - - - - - - -
29/02:00am 10.4 NW 6 10 1026.8 - 0.0 - - - - - - -
29/01:30am 10.0 WNW 5 8 1027.0 - 0.0 - - - - - - -
29/01:00am 9.2 WNW 1 3 1027.2 - 0.0 - - - - - - -
29/12:30am 10.6 WNW 4 7 1027.2 - 0.0 - - - - - - -
29/12:00am 10.8 WNW 7 9 1027.4 - 0.0 - - - - - - -
 
Date/Time
EST
Temp

°C
Wind Pressure Rain
since 9am
mm
Weather Cloud Vis
km
Sea
Height
m
Swell
Dir
 
Speed
knots
Gust
knots
hPa Trend Height
m
Period
s
Dir
28/11:30pm 10.7 WNW 8 11 1027.3 - 0.0 - - - - - - -
28/11:00pm 10.9 NW 6 8 1027.3 - 0.0 - - - - - - -
28/10:30pm 11.1 NW 8 11 1027.3 - 0.0 - - - - - - -
28/10:00pm 10.8 WNW 7 9 1027.2 - 0.0 - - - - - - -
28/09:30pm 11.6 NW 7 9 1027.2 - 0.0 - - - - - - -
28/09:00pm 11.5 WNW 8 11 1026.9 - 0.0 - - - - - - -
28/08:30pm 11.7 NW 7 11 1026.6 - 0.0 - - - - - - -
28/08:00pm 11.6 WNW 6 8 1026.5 - 0.0 - - - - - - -
28/07:30pm 11.0 W 7 9 1026.3 - 0.0 - - - - - - -

Other Formats:

Comma delimited format used in spreadsheet applications
http://www.bom.gov.au/fwo/IDT60701/IDT60701.94951.axf

JavaScript Object Notation format (JSON) in row-major order
http://www.bom.gov.au/fwo/IDT60701/IDT60701.94951.json